Norris Arm, Canada
Current Conditions -  °F | °C
As of 7:00 PM on Saturday 25 Oct 2014 (Local Time) from CYQX Reporting Station
Light Rain Light Rain  
Wind Chill: 32°   Ceiling: 500
Heat Index: 41°   Visibility: 4mi
Dew Point: 39°   Wind: 20mph
Humidity: 93%   Direction: 50°NE
Pressure: 29.53"   Gusts: 26mph
Location:  49.08°N, 55.27°W
Report Text: CYQX 252100Z 05017G23KT 4SM -RA BR BKN005 OVC013 05/04 A2953 RMK SF7SC1 SLP004
Loading
Personal Weather Stations






























Interactive Weather Map
Tropical Storm Tracking
New forecast layout! Learn more

10-Day Weather Forecast

Advertisements
Track Severe Weather on mobile